Time;durP1;ratioP1;P1;durP2;ratioP2;P2;SDS_P1;SDS_P2;PMS_P1;PMS_P2;Temp;Humidity;BMP_temperature;BMP_pressure;BME280_temperature;BME280_humidity;BME280_pressure;Samples;Min_cycle;Max_cycle;Signal;HPM_P1;HPM_P2
2022/08/09 00:00:17;;;;;;;;;;;14.40;99.90;;;;;;4955819;28;20411;-84
2022/08/09 00:02:43;;;;;;;;;;;14.40;99.90;;;;;;5039805;23;19971;-82
2022/08/09 00:05:10;;;;;;;;;;;14.40;99.90;;;;;;4965533;28;19926;-81
2022/08/09 00:07:36;;;;;;;;;;;14.40;99.90;;;;;;4965202;28;19932;-82
2022/08/09 00:10:18;;;;;;;;;;;14.40;99.90;;;;;;4965531;28;20004;-82
2022/08/09 00:12:44;;;;;;;;;;;14.40;99.90;;;;;;4962282;28;19926;-83
2022/08/09 00:15:10;;;;;;;;;;;14.40;99.90;;;;;;4950019;28;20021;-84
2022/08/09 00:17:42;;;;;;;;;;;14.30;99.90;;;;;;4978977;28;19981;-85
2022/08/09 00:20:14;;;;;;;;;;;14.20;99.90;;;;;;4987497;28;20130;-83
2022/08/09 00:22:41;;;;;;;;;;;14.10;99.90;;;;;;4983626;28;19933;-83
2022/08/09 00:25:31;;;;;;;;;;;13.90;99.90;;;;;;4989864;28;19957;-82
2022/08/09 00:28:15;;;;;;;;;;;13.80;99.90;;;;;;4981251;28;19929;-83
2022/08/09 00:30:43;;;;;;;;;;;13.70;99.90;;;;;;4974193;28;19945;-84
2022/08/09 00:33:12;;;;;;;;;;;13.70;99.90;;;;;;4971405;28;19936;-86
2022/08/09 00:35:39;;;;;;;;;;;13.60;99.90;;;;;;4974415;28;20177;-84
2022/08/09 00:38:05;;;;;;;;;;;13.70;99.90;;;;;;4978224;28;19926;-87
2022/08/09 00:41:03;;;;;;;;;;;13.70;99.90;;;;;;4953653;28;19922;-90
2022/08/09 00:43:30;;;;;;;;;;;13.60;99.90;;;;;;4957546;28;20017;-88
2022/08/09 00:46:15;;;;;;;;;;;13.60;99.90;;;;;;4992987;28;20287;-90
2022/08/09 00:48:52;;;;;;;;;;;13.50;99.90;;;;;;4972627;28;19929;-88
2022/08/09 00:51:18;;;;;;;;;;;13.60;99.90;;;;;;4958536;28;19941;-89
2022/08/09 00:53:52;;;;;;;;;;;13.50;99.90;;;;;;4967902;28;19926;-88
2022/08/09 00:56:50;;;;;;;;;;;13.50;99.90;;;;;;4959816;28;19926;-86
2022/08/09 00:59:44;;;;;;;;;;;13.50;99.90;;;;;;4954194;28;20046;-88
2022/08/09 01:02:12;;;;;;;;;;;13.60;99.90;;;;;;4952820;28;20352;-85
2022/08/09 01:04:57;;;;;;;;;;;13.60;99.90;;;;;;4947863;28;19934;-89
2022/08/09 01:07:42;;;;;;;;;;;13.60;99.90;;;;;;4977756;28;19957;-86
2022/08/09 01:10:26;;;;;;;;;;;13.60;99.90;;;;;;4952005;28;19926;-91
2022/08/09 01:13:07;;;;;;;;;;;13.60;99.90;;;;;;4960312;28;20455;-90
2022/08/09 01:15:39;;;;;;;;;;;13.60;99.90;;;;;;4948186;28;19926;-91
2022/08/09 01:18:11;;;;;;;;;;;13.60;99.90;;;;;;4958225;28;19926;-90
2022/08/09 01:20:49;;;;;;;;;;;13.60;99.90;;;;;;4950519;28;20469;-91
2022/08/09 01:23:40;;;;;;;;;;;13.40;99.90;;;;;;4954283;28;20399;-89
2022/08/09 01:26:24;;;;;;;;;;;13.70;99.90;;;;;;4974717;28;19932;-85
2022/08/09 01:28:52;;;;;;;;;;;13.80;99.90;;;;;;4973469;28;19933;-84
2022/08/09 01:31:21;;;;;;;;;;;13.80;99.90;;;;;;4970855;28;19926;-85
2022/08/09 01:33:47;;;;;;;;;;;13.80;99.90;;;;;;4948784;28;19929;-86
2022/08/09 01:36:14;;;;;;;;;;;13.80;99.90;;;;;;4960009;28;19977;-86
2022/08/09 01:38:41;;;;;;;;;;;13.80;99.90;;;;;;4978128;28;19933;-86
2022/08/09 01:41:08;;;;;;;;;;;13.80;99.90;;;;;;4942774;28;19933;-85
2022/08/09 01:43:49;;;;;;;;;;;13.80;99.90;;;;;;4991297;28;19926;-88
2022/08/09 01:46:18;;;;;;;;;;;13.80;99.90;;;;;;4953413;28;19972;-83
2022/08/09 01:48:45;;;;;;;;;;;13.80;99.90;;;;;;4949530;28;19957;-86
2022/08/09 01:51:15;;;;;;;;;;;13.80;99.90;;;;;;4967208;28;19976;-87
2022/08/09 01:53:45;;;;;;;;;;;13.80;99.90;;;;;;4946169;28;19930;-87
2022/08/09 01:56:31;;;;;;;;;;;13.80;99.90;;;;;;4967257;28;19969;-83
2022/08/09 02:02:01;;;;;;;;;;;13.80;99.90;;;;;;4984217;28;19991;-85
2022/08/09 02:04:34;;;;;;;;;;;13.80;99.90;;;;;;4971611;28;20532;-84
2022/08/09 02:09:59;;;;;;;;;;;13.70;99.90;;;;;;4968666;28;19930;-86
2022/08/09 02:12:25;;;;;;;;;;;13.60;99.90;;;;;;4951216;28;20537;-84
2022/08/09 02:14:56;;;;;;;;;;;13.60;99.90;;;;;;4952182;28;20005;-85
2022/08/09 02:17:24;;;;;;;;;;;13.60;99.90;;;;;;4939084;28;19926;-83
2022/08/09 02:19:50;;;;;;;;;;;13.50;99.90;;;;;;4945286;28;20080;-85
2022/08/09 02:22:21;;;;;;;;;;;13.50;99.90;;;;;;4932177;28;20408;-83
2022/08/09 02:24:49;;;;;;;;;;;13.40;99.90;;;;;;4944027;29;20321;-88
2022/08/09 02:27:18;;;;;;;;;;;13.40;99.90;;;;;;4938842;28;19930;-85
2022/08/09 02:29:45;;;;;;;;;;;13.30;99.90;;;;;;4958512;28;19926;-86
2022/08/09 02:32:15;;;;;;;;;;;13.30;99.90;;;;;;4962435;28;19926;-87
2022/08/09 02:34:51;;;;;;;;;;;13.30;99.90;;;;;;5071400;23;20505;-89
2022/08/09 02:37:34;;;;;;;;;;;13.30;99.90;;;;;;4982759;28;19926;-83
2022/08/09 02:40:04;;;;;;;;;;;13.30;99.90;;;;;;4939833;28;19930;-86
2022/08/09 02:42:37;;;;;;;;;;;13.30;99.90;;;;;;4977146;28;19965;-85
2022/08/09 02:45:09;;;;;;;;;;;13.20;99.90;;;;;;4947825;28;20034;-83
2022/08/09 02:47:36;;;;;;;;;;;13.20;99.90;;;;;;4983162;28;19930;-82
2022/08/09 02:50:13;;;;;;;;;;;13.10;99.90;;;;;;4980348;28;20292;-84
2022/08/09 02:52:41;;;;;;;;;;;13.00;99.90;;;;;;4993551;28;19980;-88
2022/08/09 02:55:08;;;;;;;;;;;13.00;99.90;;;;;;4980529;28;19949;-84
2022/08/09 02:57:36;;;;;;;;;;;13.00;99.90;;;;;;4939810;28;19941;-86
2022/08/09 03:00:08;;;;;;;;;;;12.90;99.90;;;;;;4934222;28;19926;-86
2022/08/09 03:02:36;;;;;;;;;;;12.90;99.90;;;;;;4940327;28;20295;-85
2022/08/09 03:05:11;;;;;;;;;;;12.90;99.90;;;;;;4938578;28;19934;-86
2022/08/09 03:07:44;;;;;;;;;;;12.80;99.90;;;;;;4927997;28;20288;-84
2022/08/09 03:10:13;;;;;;;;;;;12.80;99.90;;;;;;4956909;28;20773;-87
2022/08/09 03:12:39;;;;;;;;;;;12.70;99.90;;;;;;4955653;28;20213;-83
2022/08/09 03:15:06;;;;;;;;;;;12.60;99.90;;;;;;4934663;28;20155;-87
2022/08/09 03:17:32;;;;;;;;;;;12.50;99.90;;;;;;4936392;28;19926;-83
2022/08/09 03:20:00;;;;;;;;;;;12.50;99.90;;;;;;4945142;28;19936;-88
2022/08/09 03:22:29;;;;;;;;;;;12.50;99.90;;;;;;4942897;28;19933;-85
2022/08/09 03:24:57;;;;;;;;;;;12.50;99.90;;;;;;4944722;28;20126;-88
2022/08/09 03:27:23;;;;;;;;;;;12.50;99.90;;;;;;4951867;28;20411;-88
2022/08/09 03:29:51;;;;;;;;;;;12.50;99.90;;;;;;4951077;28;19934;-86
2022/08/09 03:32:30;;;;;;;;;;;12.40;99.90;;;;;;4935169;28;19928;-87
2022/08/09 03:34:58;;;;;;;;;;;12.40;99.90;;;;;;4934300;28;19941;-84
2022/08/09 03:37:24;;;;;;;;;;;12.40;99.90;;;;;;4940662;28;19938;-88
2022/08/09 03:39:59;;;;;;;;;;;12.40;99.90;;;;;;4921016;28;19937;-86
2022/08/09 03:42:26;;;;;;;;;;;12.40;99.90;;;;;;4988369;28;19940;-85
2022/08/09 03:44:53;;;;;;;;;;;12.40;99.90;;;;;;4950473;28;19926;-88
2022/08/09 03:47:25;;;;;;;;;;;12.40;99.90;;;;;;4966287;28;19926;-86
2022/08/09 03:49:54;;;;;;;;;;;12.40;99.90;;;;;;4930523;29;19934;-87
2022/08/09 03:52:26;;;;;;;;;;;12.30;99.90;;;;;;4920669;28;20406;-86
2022/08/09 03:54:53;;;;;;;;;;;12.30;99.90;;;;;;4968331;28;20412;-84
2022/08/09 03:57:18;;;;;;;;;;;12.30;99.90;;;;;;4967543;28;19930;-88
2022/08/09 03:59:46;;;;;;;;;;;12.30;99.90;;;;;;4970249;28;20010;-86
2022/08/09 04:02:12;;;;;;;;;;;12.30;99.90;;;;;;4921536;28;19927;-87
2022/08/09 04:04:38;;;;;;;;;;;12.20;99.90;;;;;;4965773;28;19937;-83
2022/08/09 04:07:04;;;;;;;;;;;12.10;99.90;;;;;;4953634;28;20297;-86
2022/08/09 04:09:36;;;;;;;;;;;12.10;99.90;;;;;;4965533;28;19926;-82
2022/08/09 04:12:09;;;;;;;;;;;12.10;99.90;;;;;;4966624;28;20368;-84
2022/08/09 04:14:36;;;;;;;;;;;12.10;99.90;;;;;;4929218;28;20005;-85
2022/08/09 04:17:02;;;;;;;;;;;12.10;99.90;;;;;;4935043;28;19961;-85
2022/08/09 04:19:28;;;;;;;;;;;12.20;99.90;;;;;;4944776;28;19965;-83
2022/08/09 04:21:53;;;;;;;;;;;12.20;99.90;;;;;;4972471;28;20349;-85
2022/08/09 04:24:21;;;;;;;;;;;12.20;99.90;;;;;;4957943;28;20054;-82
2022/08/09 04:26:46;;;;;;;;;;;12.20;99.90;;;;;;4976929;28;19934;-84
2022/08/09 04:29:15;;;;;;;;;;;12.20;99.90;;;;;;4962579;28;19933;-82
2022/08/09 04:31:40;;;;;;;;;;;12.20;99.90;;;;;;4953043;28;19926;-83
2022/08/09 04:34:06;;;;;;;;;;;12.20;99.90;;;;;;4968834;28;20413;-81
2022/08/09 04:36:32;;;;;;;;;;;12.20;99.90;;;;;;4940731;28;19926;-83
2022/08/09 04:38:59;;;;;;;;;;;12.20;99.90;;;;;;4937732;28;19937;-82
2022/08/09 04:41:26;;;;;;;;;;;12.20;99.90;;;;;;4937104;28;20372;-83
2022/08/09 04:43:52;;;;;;;;;;;12.30;99.90;;;;;;4982401;28;20069;-83
2022/08/09 04:46:17;;;;;;;;;;;12.30;99.90;;;;;;4953252;28;19973;-84
2022/08/09 04:48:46;;;;;;;;;;;12.30;99.90;;;;;;4930186;29;20358;-83
2022/08/09 04:51:13;;;;;;;;;;;12.30;99.90;;;;;;4940497;28;19933;-82
2022/08/09 04:53:40;;;;;;;;;;;12.30;99.90;;;;;;4924988;29;20013;-83
2022/08/09 04:56:06;;;;;;;;;;;12.30;99.90;;;;;;4951793;28;20414;-83
2022/08/09 04:58:32;;;;;;;;;;;12.30;99.90;;;;;;4958767;28;20297;-82
2022/08/09 05:00:58;;;;;;;;;;;12.40;99.90;;;;;;4965943;28;19934;-84
2022/08/09 05:03:24;;;;;;;;;;;12.40;99.90;;;;;;4977685;28;20017;-84
2022/08/09 05:05:50;;;;;;;;;;;12.40;99.90;;;;;;4956644;28;20054;-84
2022/08/09 05:08:17;;;;;;;;;;;12.50;99.90;;;;;;4954077;28;19926;-83
2022/08/09 05:10:44;;;;;;;;;;;12.50;99.90;;;;;;4968230;28;20289;-84
2022/08/09 05:13:10;;;;;;;;;;;12.50;99.90;;;;;;4953447;28;19933;-84
2022/08/09 05:15:36;;;;;;;;;;;12.50;99.90;;;;;;4934231;28;19944;-85
2022/08/09 05:18:03;;;;;;;;;;;12.50;99.90;;;;;;4953809;28;19934;-87
2022/08/09 05:20:29;;;;;;;;;;;12.60;99.90;;;;;;4930379;28;19948;-84
2022/08/09 05:23:01;;;;;;;;;;;12.70;99.90;;;;;;4956497;28;19921;-88
2022/08/09 05:25:28;;;;;;;;;;;12.80;99.90;;;;;;4939709;28;19934;-88
2022/08/09 05:27:54;;;;;;;;;;;12.90;99.90;;;;;;4938709;28;19942;-84
2022/08/09 05:30:20;;;;;;;;;;;12.90;99.90;;;;;;4951751;28;19926;-84
2022/08/09 05:32:46;;;;;;;;;;;13.00;99.90;;;;;;4953657;28;20755;-85
2022/08/09 05:35:11;;;;;;;;;;;13.10;99.90;;;;;;4957335;28;19936;-86
2022/08/09 05:37:38;;;;;;;;;;;13.10;99.90;;;;;;4954064;28;20037;-86
2022/08/09 05:40:05;;;;;;;;;;;13.20;99.90;;;;;;4938245;28;19926;-88
2022/08/09 05:42:32;;;;;;;;;;;13.30;99.90;;;;;;4967508;28;19937;-89
2022/08/09 05:44:58;;;;;;;;;;;13.40;99.90;;;;;;4930864;29;19927;-86
2022/08/09 05:47:25;;;;;;;;;;;13.50;99.90;;;;;;4919912;28;19926;-87
2022/08/09 05:49:52;;;;;;;;;;;13.00;99.90;;;;;;4938880;28;19926;-86
2022/08/09 05:52:18;;;;;;;;;;;13.70;99.90;;;;;;4935382;28;19931;-88
2022/08/09 05:54:46;;;;;;;;;;;13.80;99.90;;;;;;4953686;28;19934;-85
2022/08/09 05:57:12;;;;;;;;;;;13.90;99.90;;;;;;4955718;28;19926;-86
2022/08/09 06:02:13;;;;;;;;;;;14.10;99.90;;;;;;5004454;23;19930;-88
2022/08/09 06:04:48;;;;;;;;;;;14.20;99.90;;;;;;4967711;28;19940;-86
2022/08/09 06:07:15;;;;;;;;;;;14.50;99.90;;;;;;4965186;28;19933;-90
2022/08/09 06:09:51;;;;;;;;;;;14.40;99.90;;;;;;4948765;28;19961;-89
2022/08/09 06:12:16;;;;;;;;;;;14.60;99.90;;;;;;4957708;28;19932;-86
2022/08/09 06:15:04;;;;;;;;;;;14.80;99.90;;;;;;4943021;28;19929;-87
2022/08/09 06:17:50;;;;;;;;;;;15.00;99.90;;;;;;4973014;28;19930;-88
2022/08/09 06:20:16;;;;;;;;;;;15.40;99.90;;;;;;4955167;23;19938;-88
2022/08/09 06:22:51;;;;;;;;;;;15.70;99.90;;;;;;4968551;28;19932;-89
2022/08/09 06:25:17;;;;;;;;;;;16.20;99.90;;;;;;4971466;28;19969;-87
2022/08/09 06:27:44;;;;;;;;;;;16.50;99.90;;;;;;4976105;28;19956;-87
2022/08/09 06:30:10;;;;;;;;;;;16.50;99.90;;;;;;4954910;28;19983;-84
2022/08/09 06:32:36;;;;;;;;;;;16.50;99.90;;;;;;4973041;28;19930;-85
2022/08/09 06:35:02;;;;;;;;;;;16.60;99.90;;;;;;4969258;28;19936;-88
2022/08/09 06:37:29;;;;;;;;;;;16.60;99.90;;;;;;4951474;28;19936;-82
2022/08/09 06:39:55;;;;;;;;;;;16.60;99.90;;;;;;4974277;28;19988;-84
2022/08/09 06:42:21;;;;;;;;;;;16.80;99.90;;;;;;4955733;28;19926;-86
2022/08/09 06:44:47;;;;;;;;;;;16.90;99.90;;;;;;4959428;28;19929;-84
2022/08/09 06:47:13;;;;;;;;;;;17.00;99.90;;;;;;4958833;28;20310;-84
2022/08/09 06:49:38;;;;;;;;;;;17.10;99.90;;;;;;4970810;28;20132;-84
2022/08/09 06:52:05;;;;;;;;;;;17.20;99.90;;;;;;4955563;28;19928;-81
2022/08/09 06:54:31;;;;;;;;;;;17.40;99.90;;;;;;4955322;28;19966;-85
2022/08/09 06:56:57;;;;;;;;;;;17.80;99.90;;;;;;4957299;28;19987;-84
2022/08/09 06:59:22;;;;;;;;;;;18.30;99.90;;;;;;4966211;28;19936;-87
2022/08/09 07:01:48;;;;;;;;;;;18.40;99.90;;;;;;4953474;28;19989;-85
2022/08/09 07:04:17;;;;;;;;;;;18.50;99.90;;;;;;4968809;28;20202;-83
2022/08/09 07:06:44;;;;;;;;;;;18.50;99.90;;;;;;4993272;28;20407;-83
2022/08/09 07:09:11;;;;;;;;;;;18.60;99.90;;;;;;4977361;28;19965;-83
2022/08/09 07:11:37;;;;;;;;;;;18.90;99.90;;;;;;4974478;28;19932;-85
2022/08/09 07:14:04;;;;;;;;;;;19.10;99.90;;;;;;4969604;28;19929;-82
2022/08/09 07:16:29;;;;;;;;;;;19.30;99.90;;;;;;4968625;28;19930;-82
2022/08/09 07:18:55;;;;;;;;;;;19.70;99.90;;;;;;4969091;28;19925;-84
2022/08/09 07:21:21;;;;;;;;;;;20.20;99.90;;;;;;4954291;28;19933;-82
2022/08/09 07:23:47;;;;;;;;;;;20.70;99.90;;;;;;4977492;28;20332;-82
2022/08/09 07:26:25;;;;;;;;;;;21.30;99.90;;;;;;4955955;28;19926;-84
2022/08/09 07:28:50;;;;;;;;;;;21.70;99.90;;;;;;4961685;28;20059;-84
2022/08/09 07:31:16;;;;;;;;;;;21.90;99.90;;;;;;4953796;28;19925;-82
2022/08/09 07:33:43;;;;;;;;;;;22.10;99.90;;;;;;4967154;28;19927;-84
2022/08/09 07:36:09;;;;;;;;;;;22.80;99.90;;;;;;4961400;28;20450;-82
2022/08/09 07:38:35;;;;;;;;;;;22.90;99.90;;;;;;4968608;28;20124;-84
2022/08/09 07:41:01;;;;;;;;;;;22.40;99.90;;;;;;4959583;28;19937;-81
2022/08/09 07:43:27;;;;;;;;;;;22.10;99.90;;;;;;4950722;28;20165;-85
2022/08/09 07:45:52;;;;;;;;;;;22.10;99.90;;;;;;4972317;28;20281;-81
2022/08/09 07:48:18;;;;;;;;;;;23.10;99.90;;;;;;4969665;28;20036;-82
2022/08/09 07:50:44;;;;;;;;;;;23.80;99.90;;;;;;4957021;28;19984;-83
2022/08/09 07:53:10;;;;;;;;;;;24.40;99.90;;;;;;4968380;28;20287;-84
2022/08/09 07:55:36;;;;;;;;;;;24.40;99.90;;;;;;4979246;28;19929;-83
2022/08/09 07:58:02;;;;;;;;;;;24.10;99.90;;;;;;4965481;28;19937;-85
2022/08/09 08:00:28;;;;;;;;;;;23.90;99.90;;;;;;4957320;28;19930;-84
2022/08/09 08:02:55;;;;;;;;;;;24.50;99.90;;;;;;4970337;28;19930;-81
2022/08/09 08:05:20;;;;;;;;;;;25.30;99.90;;;;;;4971895;28;20012;-82
2022/08/09 08:07:46;;;;;;;;;;;25.20;99.90;;;;;;4970387;28;20216;-87
2022/08/09 08:10:12;;;;;;;;;;;25.00;99.90;;;;;;4956987;28;19929;-79
2022/08/09 08:12:43;;;;;;;;;;;25.20;99.90;;;;;;4989844;28;19984;-90
2022/08/09 08:15:11;;;;;;;;;;;25.30;99.90;;;;;;4974226;28;19977;-85
2022/08/09 08:17:37;;;;;;;;;;;24.70;99.90;;;;;;4984748;28;19984;-86
2022/08/09 08:20:03;;;;;;;;;;;24.90;99.90;;;;;;4950414;28;19934;-79
2022/08/09 08:22:29;;;;;;;;;;;25.70;99.90;;;;;;4969184;28;19932;-82
2022/08/09 08:24:55;;;;;;;;;;;26.30;99.90;;;;;;4966711;28;19926;-82
2022/08/09 08:27:24;;;;;;;;;;;26.30;99.90;;;;;;4956988;28;20368;-81
2022/08/09 08:29:50;;;;;;;;;;;25.90;99.90;;;;;;4969466;28;20024;-82
2022/08/09 08:32:16;;;;;;;;;;;25.60;99.90;;;;;;4970357;28;19922;-84
2022/08/09 08:34:42;;;;;;;;;;;25.80;99.90;;;;;;4943110;28;20411;-87
2022/08/09 08:37:11;;;;;;;;;;;26.30;98.50;;;;;;5003824;28;19932;-83
2022/08/09 08:39:37;;;;;;;;;;;26.70;97.50;;;;;;4970032;28;20008;-80
2022/08/09 08:42:04;;;;;;;;;;;27.00;95.40;;;;;;4975628;28;20009;-82
2022/08/09 08:44:33;;;;;;;;;;;27.20;95.70;;;;;;4988435;28;20641;-83
2022/08/09 08:46:59;;;;;;;;;;;27.30;94.40;;;;;;4977393;28;20284;-91
2022/08/09 08:49:25;;;;;;;;;;;27.50;95.10;;;;;;4953919;28;19929;-83
2022/08/09 08:51:50;;;;;;;;;;;27.80;94.00;;;;;;4956595;28;19930;-86
2022/08/09 08:54:22;;;;;;;;;;;27.90;91.10;;;;;;4978746;28;19930;-81
2022/08/09 08:56:52;;;;;;;;;;;27.90;87.00;;;;;;4985176;28;19930;-85
2022/08/09 08:59:19;;;;;;;;;;;27.80;87.80;;;;;;4989984;28;19944;-82
2022/08/09 09:01:45;;;;;;;;;;;27.70;86.20;;;;;;4978301;28;19960;-85
2022/08/09 09:04:15;;;;;;;;;;;27.70;87.90;;;;;;4974067;28;20158;-79
2022/08/09 09:06:41;;;;;;;;;;;27.80;87.50;;;;;;4967478;28;19930;-82
2022/08/09 09:09:12;;;;;;;;;;;27.50;88.70;;;;;;4980447;28;19933;-82
2022/08/09 09:11:39;;;;;;;;;;;27.20;88.80;;;;;;4947693;28;20008;-83
2022/08/09 09:14:11;;;;;;;;;;;26.70;88.70;;;;;;4979554;28;19946;-81
2022/08/09 09:16:37;;;;;;;;;;;26.30;90.30;;;;;;4973145;28;19941;-84
2022/08/09 09:19:06;;;;;;;;;;;25.80;91.40;;;;;;4960032;28;20029;-86
2022/08/09 09:21:32;;;;;;;;;;;25.50;91.80;;;;;;4967420;28;19937;-84
2022/08/09 09:24:02;;;;;;;;;;;25.10;91.70;;;;;;4956474;28;19930;-84
2022/08/09 09:26:29;;;;;;;;;;;25.00;92.60;;;;;;4984554;28;19979;-85
2022/08/09 09:28:56;;;;;;;;;;;25.00;94.50;;;;;;4975583;28;19936;-86
2022/08/09 09:31:23;;;;;;;;;;;25.00;96.70;;;;;;4975625;28;19994;-82
2022/08/09 09:33:49;;;;;;;;;;;25.10;94.00;;;;;;4958584;28;19987;-83
2022/08/09 09:36:15;;;;;;;;;;;25.10;95.10;;;;;;4969908;28;19973;-84
2022/08/09 09:39:01;;;;;;;;;;;25.20;94.70;;;;;;4974256;28;19997;-82
2022/08/09 09:41:28;;;;;;;;;;;25.40;96.20;;;;;;4969457;28;19933;-82
2022/08/09 09:49:32;;;;;;;;;;;24.80;96.10;;;;;;5007042;28;19952;-85
2022/08/09 09:52:02;;;;;;;;;;;24.90;96.60;;;;;;5009886;28;19930;-85
2022/08/09 09:54:34;;;;;;;;;;;24.70;96.20;;;;;;4994942;28;19925;-80
2022/08/09 09:57:10;;;;;;;;;;;24.70;97.10;;;;;;4991454;28;20047;-81
2022/08/09 09:59:39;;;;;;;;;;;24.90;98.10;;;;;;4996587;28;19929;-82
2022/08/09 10:02:09;;;;;;;;;;;24.90;97.50;;;;;;4996052;28;19925;-84
2022/08/09 10:04:35;;;;;;;;;;;25.00;96.90;;;;;;4976834;28;20469;-83
2022/08/09 10:07:00;;;;;;;;;;;24.90;97.30;;;;;;4997893;28;20016;-82
2022/08/09 10:09:45;;;;;;;;;;;24.90;97.90;;;;;;4981846;28;20400;-81
2022/08/09 10:12:11;;;;;;;;;;;24.90;97.30;;;;;;4977569;28;19925;-84
2022/08/09 10:14:37;;;;;;;;;;;25.20;97.40;;;;;;5002942;28;20007;-79
2022/08/09 10:17:12;;;;;;;;;;;25.40;97.00;;;;;;4981286;28;19980;-85
2022/08/09 10:19:52;;;;;;;;;;;25.90;96.80;;;;;;4996851;28;20291;-81
2022/08/09 10:22:42;;;;;;;;;;;25.80;95.30;;;;;;4993244;28;19926;-84
2022/08/09 10:25:08;;;;;;;;;;;25.60;95.30;;;;;;4976828;28;20400;-85
2022/08/09 10:27:34;;;;;;;;;;;25.50;96.20;;;;;;4991174;28;19956;-83
2022/08/09 10:30:05;;;;;;;;;;;25.30;95.80;;;;;;4971220;28;20388;-83
2022/08/09 10:32:30;;;;;;;;;;;25.10;95.70;;;;;;4975015;28;20020;-85
2022/08/09 10:34:58;;;;;;;;;;;25.10;96.80;;;;;;4967625;28;20075;-83
2022/08/09 10:37:23;;;;;;;;;;;25.50;96.80;;;;;;4978895;28;19955;-81
2022/08/09 10:39:49;;;;;;;;;;;25.70;96.40;;;;;;4959305;28;19925;-80
2022/08/09 10:42:21;;;;;;;;;;;25.60;95.30;;;;;;4984020;28;20308;-82
2022/08/09 10:44:49;;;;;;;;;;;25.40;95.90;;;;;;4993578;28;20523;-82
2022/08/09 10:47:34;;;;;;;;;;;25.20;95.60;;;;;;4990107;28;20411;-81
2022/08/09 10:50:18;;;;;;;;;;;25.50;97.00;;;;;;4974937;28;19925;-81
2022/08/09 10:52:47;;;;;;;;;;;25.80;95.20;;;;;;4973079;28;19937;-84
2022/08/09 10:55:18;;;;;;;;;;;25.80;95.90;;;;;;4975891;28;19930;-84
2022/08/09 10:57:51;;;;;;;;;;;25.80;96.10;;;;;;4997705;28;19921;-84
2022/08/09 11:00:36;;;;;;;;;;;25.80;95.20;;;;;;4972736;28;19983;-84
2022/08/09 11:03:17;;;;;;;;;;;26.10;94.70;;;;;;4993154;28;19933;-83
2022/08/09 11:06:03;;;;;;;;;;;26.40;94.80;;;;;;4992719;28;20333;-80
2022/08/09 11:08:53;;;;;;;;;;;26.60;93.20;;;;;;4989529;28;19937;-85
2022/08/09 11:11:20;;;;;;;;;;;26.90;93.80;;;;;;4996707;28;19945;-84
2022/08/09 11:14:07;;;;;;;;;;;26.80;93.10;;;;;;4977380;28;20013;-82
2022/08/09 11:16:39;;;;;;;;;;;26.90;92.70;;;;;;4971072;28;20019;-85
2022/08/09 11:19:06;;;;;;;;;;;27.10;91.80;;;;;;4991003;28;19937;-83
2022/08/09 11:21:50;;;;;;;;;;;27.00;94.00;;;;;;4991573;28;20340;-81
2022/08/09 11:24:25;;;;;;;;;;;26.50;92.90;;;;;;4987932;28;19940;-82
2022/08/09 11:26:51;;;;;;;;;;;26.20;92.30;;;;;;5012686;28;19925;-85
2022/08/09 11:29:37;;;;;;;;;;;26.00;92.60;;;;;;4994330;28;20394;-85
2022/08/09 11:32:03;;;;;;;;;;;25.80;92.10;;;;;;4974963;28;19909;-81
2022/08/09 11:34:34;;;;;;;;;;;25.60;92.50;;;;;;4970093;28;20051;-81
2022/08/09 11:37:02;;;;;;;;;;;25.80;93.30;;;;;;4968144;28;20072;-80
2022/08/09 11:39:28;;;;;;;;;;;26.00;93.20;;;;;;4997772;28;19942;-80
2022/08/09 11:42:02;;;;;;;;;;;26.30;92.30;;;;;;4997560;28;19929;-80
2022/08/09 11:44:44;;;;;;;;;;;26.50;92.80;;;;;;4968217;28;19930;-81
2022/08/09 11:47:12;;;;;;;;;;;26.70;92.20;;;;;;4957176;28;20391;-82
2022/08/09 11:50:16;;;;;;;;;;;26.80;91.10;;;;;;4989209;28;19929;-81
2022/08/09 11:53:02;;;;;;;;;;;26.80;91.10;;;;;;4972436;28;19969;-85
2022/08/09 11:55:32;;;;;;;;;;;26.80;91.20;;;;;;4983516;28;20288;-80
2022/08/09 11:58:01;;;;;;;;;;;26.80;91.50;;;;;;4999961;28;19948;-82
2022/08/09 12:00:29;;;;;;;;;;;26.70;91.40;;;;;;5004102;28;19988;-80
2022/08/09 12:02:55;;;;;;;;;;;26.70;90.60;;;;;;5000697;28;19933;-86
2022/08/09 12:05:21;;;;;;;;;;;26.70;90.10;;;;;;4999804;28;20084;-83
2022/08/09 12:07:48;;;;;;;;;;;26.50;90.60;;;;;;4979262;28;20008;-84
2022/08/09 12:10:14;;;;;;;;;;;26.40;90.90;;;;;;4978265;28;19926;-86
2022/08/09 12:12:47;;;;;;;;;;;26.40;92.30;;;;;;4994053;28;20311;-81
2022/08/09 12:15:20;;;;;;;;;;;26.40;91.20;;;;;;4972451;28;19929;-82
2022/08/09 12:17:53;;;;;;;;;;;26.30;90.80;;;;;;4985891;28;20270;-84
2022/08/09 12:20:25;;;;;;;;;;;26.20;90.00;;;;;;4974434;28;19926;-83
2022/08/09 12:22:52;;;;;;;;;;;26.10;91.00;;;;;;4973818;28;19940;-82
2022/08/09 12:25:18;;;;;;;;;;;26.00;91.40;;;;;;4974698;28;19925;-87
2022/08/09 12:27:45;;;;;;;;;;;25.90;91.60;;;;;;4991262;28;19929;-87
2022/08/09 12:30:12;;;;;;;;;;;25.90;91.20;;;;;;4992214;28;20183;-83
2022/08/09 12:32:38;;;;;;;;;;;25.80;91.70;;;;;;4989622;28;20030;-84
2022/08/09 12:35:22;;;;;;;;;;;25.70;91.10;;;;;;4973895;28;19934;-84
2022/08/09 12:37:48;;;;;;;;;;;25.60;91.70;;;;;;4983797;28;19934;-90
2022/08/09 12:40:16;;;;;;;;;;;25.40;91.50;;;;;;4980906;28;19925;-86
2022/08/09 12:42:42;;;;;;;;;;;25.30;91.90;;;;;;4970779;28;19933;-84
2022/08/09 12:45:12;;;;;;;;;;;25.20;92.10;;;;;;4997649;28;19949;-86
2022/08/09 12:47:38;;;;;;;;;;;25.10;91.80;;;;;;5003489;28;19929;-83
2022/08/09 12:50:16;;;;;;;;;;;25.10;93.50;;;;;;4976972;28;19933;-83
2022/08/09 12:52:43;;;;;;;;;;;24.90;92.80;;;;;;4992719;28;20024;-86
2022/08/09 12:55:09;;;;;;;;;;;24.80;92.50;;;;;;4981194;28;20559;-86
2022/08/09 12:57:42;;;;;;;;;;;24.70;92.50;;;;;;4978125;28;20008;-82
2022/08/09 13:00:12;;;;;;;;;;;24.70;93.20;;;;;;4994055;28;19941;-84
2022/08/09 13:02:50;;;;;;;;;;;24.60;92.50;;;;;;4980930;28;20024;-84
2022/08/09 13:05:17;;;;;;;;;;;24.50;93.50;;;;;;4976237;28;20174;-86
2022/08/09 13:08:02;;;;;;;;;;;24.40;93.20;;;;;;4992388;28;19936;-84
2022/08/09 13:10:28;;;;;;;;;;;24.40;92.90;;;;;;4968277;28;19999;-86
2022/08/09 13:12:54;;;;;;;;;;;24.30;93.60;;;;;;4999872;28;19921;-82
2022/08/09 13:15:20;;;;;;;;;;;24.10;93.30;;;;;;4967319;28;19976;-84
2022/08/09 13:17:48;;;;;;;;;;;24.00;93.90;;;;;;4993754;28;19937;-85
2022/08/09 13:20:18;;;;;;;;;;;24.00;94.90;;;;;;4986315;28;19925;-83
2022/08/09 13:22:49;;;;;;;;;;;24.00;95.00;;;;;;4993947;28;19929;-81
2022/08/09 13:25:14;;;;;;;;;;;23.90;94.40;;;;;;4989854;28;19933;-82
2022/08/09 13:27:41;;;;;;;;;;;23.90;94.90;;;;;;5000338;28;19948;-80
2022/08/09 13:30:09;;;;;;;;;;;23.80;94.60;;;;;;4995856;28;19925;-83
2022/08/09 13:32:45;;;;;;;;;;;23.80;95.00;;;;;;4985072;28;19929;-80
2022/08/09 13:35:12;;;;;;;;;;;23.80;95.00;;;;;;4991455;28;20375;-81
2022/08/09 13:37:55;;;;;;;;;;;23.70;94.80;;;;;;4992025;28;19956;-81
2022/08/09 13:40:55;;;;;;;;;;;23.60;94.90;;;;;;4961917;28;19945;-80
2022/08/09 13:43:21;;;;;;;;;;;23.50;95.70;;;;;;4963846;28;19957;-85
2022/08/09 13:45:46;;;;;;;;;;;23.50;95.50;;;;;;4995694;28;19969;-80
2022/08/09 13:48:12;;;;;;;;;;;23.40;96.00;;;;;;5011791;28;20383;-85
2022/08/09 13:50:38;;;;;;;;;;;23.40;96.30;;;;;;4992572;28;19947;-84
2022/08/09 13:53:04;;;;;;;;;;;23.30;95.70;;;;;;4961895;28;20387;-82
2022/08/09 13:55:30;;;;;;;;;;;23.30;96.50;;;;;;5005117;28;19932;-79
2022/08/09 13:57:56;;;;;;;;;;;23.30;96.80;;;;;;4988011;28;19929;-85
2022/08/09 14:00:22;;;;;;;;;;;23.30;96.50;;;;;;4998010;28;19925;-82
2022/08/09 14:02:51;;;;;;;;;;;23.30;96.80;;;;;;4976771;28;19956;-80
2022/08/09 14:05:24;;;;;;;;;;;23.20;96.90;;;;;;4997186;28;19933;-86
2022/08/09 14:07:49;;;;;;;;;;;23.20;96.90;;;;;;4981353;28;19925;-84
2022/08/09 14:10:16;;;;;;;;;;;23.30;96.60;;;;;;4965435;28;20299;-84
2022/08/09 14:12:42;;;;;;;;;;;23.30;96.70;;;;;;4992316;28;20015;-87
2022/08/09 14:15:09;;;;;;;;;;;23.30;96.50;;;;;;4972096;28;20328;-85
2022/08/09 14:17:35;;;;;;;;;;;23.30;96.60;;;;;;4976372;28;19994;-86
2022/08/09 14:20:02;;;;;;;;;;;23.20;96.80;;;;;;4990704;28;19925;-83
2022/08/09 14:22:28;;;;;;;;;;;23.20;97.00;;;;;;4975324;28;19929;-81
2022/08/09 14:24:54;;;;;;;;;;;23.20;96.80;;;;;;4976082;28;19999;-85
2022/08/09 14:28:04;;;;;;;;;;;23.10;96.60;;;;;;4976568;28;19925;-83
2022/08/09 14:30:32;;;;;;;;;;;23.10;97.60;;;;;;4968414;28;20386;-82
2022/08/09 14:32:58;;;;;;;;;;;;;;;;;;4989639;28;19951;-85
2022/08/09 14:35:27;;;;;;;;;;;23.00;98.00;;;;;;4991973;28;20364;-81
2022/08/09 14:37:53;;;;;;;;;;;22.80;98.00;;;;;;4983443;28;20003;-82
2022/08/09 14:40:19;;;;;;;;;;;22.90;98.20;;;;;;4999059;28;19925;-80
2022/08/09 14:42:45;;;;;;;;;;;22.90;98.40;;;;;;4991409;28;19925;-81
2022/08/09 14:45:10;;;;;;;;;;;22.90;98.60;;;;;;4958012;28;20436;-82
2022/08/09 14:47:36;;;;;;;;;;;22.90;99.10;;;;;;4977935;28;19933;-83